createdAt,value
2023-01-10T00:02:46.583Z,142.70968
2023-01-10T00:07:48.240Z,125.17647
2023-01-10T00:12:49.734Z,112.30601
2023-01-10T00:17:51.344Z,112.76712
2023-01-10T00:22:52.910Z,122.55072
2023-01-10T00:27:54.768Z,115.58774
2023-01-10T00:32:56.316Z,110.93767
2023-01-10T00:37:57.781Z,110.48649
2023-01-10T00:42:59.539Z,114.63712
2023-01-10T00:48:01.205Z,115.58774
2023-01-10T00:53:02.959Z,113.23077
2023-01-10T00:58:04.837Z,110.93767
2023-01-10T01:03:06.592Z,109.5914
2023-01-10T01:08:08.314Z,109.14745
2023-01-10T01:13:09.977Z,112.76712
2023-01-10T01:18:11.633Z,110.48649
2023-01-10T01:23:13.211Z,107.82979
2023-01-10T01:28:14.830Z,106.96296
2023-01-10T01:33:16.564Z,105.67979
2023-01-10T01:38:18.327Z,107.82979
2023-01-10T01:43:20.135Z,105.67979
2023-01-10T01:48:21.921Z,106.53298
2023-01-10T01:53:23.660Z,106.10526
2023-01-10T01:58:25.726Z,111.84741
2023-01-10T02:03:27.520Z,121.52161
2023-01-10T02:08:29.278Z,110.93767
2023-01-10T02:13:31.200Z,114.16575
2023-01-10T02:18:32.966Z,111.84741
2023-01-10T02:23:34.511Z,117.52113
2023-01-10T02:28:36.516Z,124.11696
2023-01-10T02:33:38.198Z,132.3792
2023-01-10T02:38:39.979Z,141.4359
2023-01-10T02:43:41.779Z,150.71141
2023-01-10T02:48:43.549Z,150.71141
2023-01-10T02:53:45.287Z,152.10811
2023-01-10T02:58:47.253Z,150.71141
2023-01-10T03:03:48.871Z,147.97351
2023-01-10T03:08:50.776Z,144.65147
2023-01-10T03:13:52.410Z,134.12346
2023-01-10T03:18:54.016Z,135.90031
2023-01-10T03:23:55.723Z,132.3792
2023-01-10T03:28:57.905Z,123.59184
2023-01-10T03:33:59.481Z,135.30435
2023-01-10T03:39:01.263Z,130.66667
2023-01-10T03:44:02.767Z,135.30435
2023-01-10T03:49:04.535Z,126.78932
2023-01-10T03:54:06.344Z,121.52161
2023-01-10T03:59:08.388Z,125.17647
2023-01-10T04:04:10.184Z,124.11696
2023-01-10T04:09:11.948Z,118.50425
2023-01-10T04:14:13.379Z,116.54902
2023-01-10T04:19:14.825Z,112.30601
2023-01-10T04:24:16.353Z,102.76289
2023-01-10T04:29:18.133Z,103.17313
2023-01-10T04:34:19.602Z,95.72414
2023-01-10T04:39:21.363Z,92.79227
2023-01-10T04:44:23.167Z,97.23383
2023-01-10T04:49:24.931Z,101.94872
2023-01-10T04:54:26.735Z,117.03371
2023-01-10T04:59:29.150Z,113.23077
2023-01-10T05:04:30.594Z,112.30601
2023-01-10T05:09:32.389Z,132.3792
2023-01-10T05:14:34.235Z,119
2023-01-10T05:19:36.054Z,128.98498
2023-01-10T05:24:37.842Z,130.66667
2023-01-10T05:29:39.782Z,121.52161
2023-01-10T05:34:41.544Z,120
2023-01-10T05:39:43.297Z,138.93671
2023-01-10T05:44:45.242Z,130.10272
2023-01-10T05:49:47.021Z,141.4359
2023-01-10T05:54:48.832Z,137.10345
2023-01-10T05:59:51.239Z,150.71141
2023-01-10T06:04:52.960Z,144.65147
2023-01-10T06:09:54.450Z,166.38267
2023-01-10T06:14:55.912Z,179.1145
2023-01-10T06:19:57.401Z,173.85075
2023-01-10T06:25:00.463Z,173.85075
2023-01-10T06:30:03.675Z,189.41833
2023-01-10T06:35:05.163Z,165.58273
2023-01-10T06:40:06.589Z,167.18841
2023-01-10T06:45:08.195Z,179.1145
2023-01-10T06:50:09.748Z,170.47059
2023-01-10T06:55:11.377Z,173.85075
2023-01-10T07:00:13.851Z,178.22053
2023-01-10T07:05:15.499Z,191.38956
2023-01-10T07:10:17.181Z,188.44444
2023-01-10T07:15:18.803Z,210.66667
2023-01-10T07:20:20.282Z,221.47748
2023-01-10T07:25:21.934Z,219
2023-01-10T07:30:25.383Z,244.4878
2023-01-10T07:35:27.338Z,240.15385
2023-01-10T07:40:28.941Z,268.21053
2023-01-10T07:45:30.570Z,298.02299
2023-01-10T07:50:32.055Z,329
2023-01-10T07:55:33.588Z,278.78261
2023-01-10T08:00:35.785Z,346.61438
2023-01-10T08:05:37.280Z,514.37037
2023-01-10T08:10:38.736Z,261.52577
2023-01-10T08:15:40.395Z,259.89744
2023-01-10T08:20:42.222Z,317.33333
2023-01-10T08:25:44.106Z,315.08434
2023-01-10T08:30:49.012Z,377.80282
2023-01-10T08:35:51.750Z,421.51938
2023-01-10T08:40:53.263Z,453.09091
2023-01-10T08:45:54.744Z,479.65217
2023-01-10T08:50:56.278Z,400.2963
2023-01-10T08:55:57.816Z,504
2023-01-10T09:00:59.695Z,461.64706
2023-01-10T09:06:01.257Z,811.60563
2023-01-10T09:11:02.797Z,620.92308
2023-01-10T09:16:04.520Z,579.05155
2023-01-10T09:21:06.053Z,1227.33333
2023-01-10T09:26:08.016Z,1376.55814
2023-01-10T09:31:10.690Z,1201.14286
2023-01-10T09:36:12.319Z,1227.33333
2023-01-10T09:41:13.801Z,1810.66667
2023-01-10T09:46:15.604Z,1283.13043
2023-01-10T09:51:17.135Z,1344
2023-01-10T09:56:18.924Z,2510.66667
2023-01-10T10:01:21.480Z,1655.11111
2023-01-10T10:06:23.410Z,1655.11111
2023-01-10T10:11:25.311Z,1084.74074
2023-01-10T10:16:27.039Z,1931.09677
2023-01-10T10:21:28.833Z,1931.09677
2023-01-10T10:26:30.341Z,1523.48718
2023-01-10T10:31:33.030Z,1869
2023-01-10T10:36:35.264Z,1376.55814
2023-01-10T10:41:37.305Z,1201.14286
2023-01-10T10:46:39.198Z,1151.84314
2023-01-10T10:51:40.984Z,1446.43902
2023-01-10T10:56:42.693Z,1608.86486
2023-01-10T11:01:44.914Z,1810.66667
2023-01-10T11:06:47.048Z,1484
2023-01-10T11:11:49.220Z,1755.76471
2023-01-10T11:16:51.407Z,3794
2023-01-10T11:21:53.494Z,2744
2023-01-10T11:26:55.711Z,3366.22222
2023-01-10T11:32:00.332Z,3186.10526
2023-01-10T11:37:02.935Z,3186.10526
2023-01-10T11:42:05.388Z,3186.10526
2023-01-10T11:47:07.668Z,3794
2023-01-10T11:52:11.192Z,2622.26087
2023-01-10T11:57:14.144Z,2313.23077
2023-01-10T12:02:16.891Z,2144
2023-01-10T12:07:18.908Z,3024
2023-01-10T12:12:21.181Z,3186.10526
2023-01-10T12:17:23.667Z,2313.23077
2023-01-10T12:22:26.314Z,3186.10526
2023-01-10T12:27:28.821Z,1704
2023-01-10T12:32:33.349Z,1869
2023-01-10T12:37:36.119Z,2408
2023-01-10T12:42:38.878Z,2622.26087
2023-01-10T12:47:41.447Z,2313.23077
2023-01-10T12:52:44.341Z,2622.26087
2023-01-10T12:57:46.969Z,4050.66667
2023-01-10T13:02:51.451Z,3366.22222
2023-01-10T13:07:53.657Z,5077.33333
2023-01-10T13:12:55.967Z,5077.33333
2023-01-10T13:17:58.226Z,3794
2023-01-10T13:23:00.993Z,4682.46154
2023-01-10T13:28:03.673Z,8744
2023-01-10T13:33:08.224Z,4344
2023-01-10T13:38:10.758Z,4344
2023-01-10T13:43:12.941Z,5077.33333
2023-01-10T13:48:15.327Z,3567.52941
2023-01-10T13:53:17.721Z,3024
2023-01-10T13:58:20.091Z,5544
2023-01-10T14:03:22.803Z,3366.22222
2023-01-10T14:08:24.784Z,3567.52941
2023-01-10T14:13:26.667Z,4682.46154
2023-01-10T14:18:28.612Z,4344
2023-01-10T14:23:30.758Z,2622.26087
2023-01-10T14:28:33.118Z,3024
2023-01-10T14:33:37.122Z,2225.48148
2023-01-10T14:38:39.141Z,3366.22222
2023-01-10T14:43:41.236Z,4344
2023-01-10T14:48:43.173Z,2144
2023-01-10T14:53:45.192Z,3186.10526
2023-01-10T14:58:46.967Z,1608.86486
2023-01-10T15:03:49.185Z,3794
2023-01-10T15:08:51.049Z,4682.46154
2023-01-10T15:13:53.057Z,7644
2023-01-10T15:18:54.701Z,12264
2023-01-10T15:23:56.253Z,15344
2023-01-10T15:28:57.817Z,20477.33333
2023-01-10T15:34:00.608Z,10210.66667
2023-01-10T15:39:02.291Z,15344
2023-01-10T15:44:04.015Z,12264
2023-01-10T15:49:05.740Z,7644
2023-01-10T15:54:07.625Z,7644
2023-01-10T15:59:09.707Z,7644
2023-01-10T16:04:11.637Z,7644
2023-01-10T16:09:13.160Z,4344
2023-01-10T16:14:14.910Z,3024
2023-01-10T16:19:16.758Z,1810.66667
2023-01-10T16:24:18.456Z,1446.43902
2023-01-10T16:29:20.252Z,1283.13043
2023-01-10T16:34:23.618Z,704.49383
2023-01-10T16:39:25.568Z,776.43243
2023-01-10T16:44:27.434Z,1006.06897
2023-01-10T16:49:29.326Z,660.27907
2023-01-10T16:54:31.190Z,953.83607
2023-01-10T16:59:33.084Z,937.54839
2023-01-10T17:04:35.277Z,921.77778
2023-01-10T17:09:37.079Z,877.33333
2023-01-10T17:14:38.966Z,668.70588
2023-01-10T17:19:40.863Z,921.77778
2023-01-10T17:24:42.740Z,863.40299
2023-01-10T17:29:44.636Z,620.92308
2023-01-10T17:34:46.909Z,677.33333
2023-01-10T17:39:49.050Z,566.22222
2023-01-10T17:44:51.140Z,877.33333
2023-01-10T17:49:53.257Z,824
2023-01-10T17:54:55.182Z,776.43243
2023-01-10T17:59:56.846Z,393.63504
2023-01-10T18:04:58.700Z,644
2023-01-10T18:10:00.664Z,448.91803
2023-01-10T18:15:02.950Z,566.22222
2023-01-10T18:20:05.990Z,592.42105
2023-01-10T18:25:09.130Z,553.90099
2023-01-10T18:30:13.262Z,668.70588
2023-01-10T18:35:17.569Z,644
2023-01-10T18:40:20.610Z,519.70093
2023-01-10T18:45:24.159Z,636.13483
2023-01-10T18:50:27.821Z,686.16867
2023-01-10T18:55:31.219Z,620.92308
2023-01-10T19:00:34.907Z,592.42105
2023-01-10T19:05:43.756Z,536.30769
2023-01-10T19:11:11.799Z,519.70093
2023-01-10T19:16:17.119Z,461.64706
2023-01-10T19:21:21.305Z,429.03937
2023-01-10T19:26:24.854Z,417.84615
2023-01-10T19:31:28.783Z,351.94702
2023-01-10T19:36:33.453Z,448.91803
2023-01-10T19:41:37.382Z,466.0339
2023-01-10T19:46:41.393Z,407.15789
2023-01-10T19:51:45.025Z,403.70149
2023-01-10T19:56:48.173Z,444.81301
2023-01-10T20:01:51.196Z,470.49573
2023-01-10T20:06:54.657Z,333.87342
2023-01-10T20:11:57.430Z,357.42282
2023-01-10T20:17:00.436Z,371.77778
2023-01-10T20:22:03.338Z,341.41935
2023-01-10T20:27:05.925Z,338.87179
2023-01-10T20:32:08.187Z,310.66667
2023-01-10T20:37:12.323Z,296
2023-01-10T20:42:16.010Z,288.13408
2023-01-10T20:47:18.467Z,268.21053
2023-01-10T20:52:21.109Z,259.89744
2023-01-10T20:57:23.412Z,266.51309
2023-01-10T21:02:25.526Z,275.1828
2023-01-10T21:07:27.716Z,284.33149
2023-01-10T21:12:29.743Z,259.89744
2023-01-10T21:17:31.707Z,245.96078
2023-01-10T21:22:34.800Z,230.51163
2023-01-10T21:27:37.322Z,230.51163
2023-01-10T21:32:39.104Z,207.24786
2023-01-10T21:37:41.065Z,221.47748
2023-01-10T21:42:42.817Z,306.35294
2023-01-10T21:47:44.477Z,429.03937
2023-01-10T21:52:45.966Z,484.35088
2023-01-10T21:57:47.762Z,436.8
2023-01-10T22:02:49.498Z,380.87943
2023-01-10T22:07:51.494Z,410.66667
2023-01-10T22:12:53.252Z,380.87943
2023-01-10T22:17:55.100Z,338.87179
2023-01-10T22:22:56.555Z,346.61438
2023-01-10T22:27:58.205Z,312.86228
2023-01-10T22:32:59.680Z,321.91411
2023-01-10T22:38:01.485Z,310.66667
2023-01-10T22:43:03.084Z,317.33333
2023-01-10T22:48:04.600Z,288.13408
2023-01-10T22:53:06.103Z,286.22222
2023-01-10T22:58:07.693Z,288.13408
2023-01-10T23:03:09.300Z,286.22222
2023-01-10T23:08:10.985Z,278.78261
2023-01-10T23:13:14.608Z,286.22222
2023-01-10T23:18:17.602Z,300.06936
2023-01-10T23:23:19.599Z,317.33333
2023-01-10T23:28:21.362Z,298.02299
2023-01-10T23:33:23.179Z,308.49704
2023-01-10T23:38:25.151Z,288.13408
2023-01-10T23:43:26.824Z,306.35294
2023-01-10T23:48:28.498Z,308.49704
2023-01-10T23:53:30.355Z,324.24691
2023-01-10T23:58:32.079Z,324.24691
